sensor_id;sensor_type;location;lat;lon;timestamp;P1;durP1;ratioP1;P2;durP2;ratioP2
56321;SDS011;42227;6.376;-10.782;2023-01-09T00:01:30;40.97;;;21.38;;
56321;SDS011;42227;6.376;-10.782;2023-01-09T00:04:01;50.38;;;22.27;;
56321;SDS011;42227;6.376;-10.782;2023-01-09T00:06:30;37.40;;;21.95;;
56321;SDS011;42227;6.376;-10.782;2023-01-09T00:08:58;32.90;;;20.77;;
56321;SDS011;42227;6.376;-10.782;2023-01-09T00:11:26;36.22;;;19.95;;
56321;SDS011;42227;6.376;-10.782;2023-01-09T00:13:55;38.67;;;21.00;;
56321;SDS011;42227;6.376;-10.782;2023-01-09T00:16:23;33.00;;;19.70;;
56321;SDS011;42227;6.376;-10.782;2023-01-09T00:18:53;36.45;;;19.88;;
56321;SDS011;42227;6.376;-10.782;2023-01-09T00:21:21;35.40;;;21.10;;
56321;SDS011;42227;6.376;-10.782;2023-01-09T00:23:51;42.10;;;21.55;;
56321;SDS011;42227;6.376;-10.782;2023-01-09T00:26:21;36.37;;;21.63;;
56321;SDS011;42227;6.376;-10.782;2023-01-09T00:28:50;40.63;;;19.30;;
56321;SDS011;42227;6.376;-10.782;2023-01-09T00:31:19;32.17;;;19.98;;
56321;SDS011;42227;6.376;-10.782;2023-01-09T00:33:49;52.30;;;23.15;;
56321;SDS011;42227;6.376;-10.782;2023-01-09T00:36:19;32.63;;;20.33;;
56321;SDS011;42227;6.376;-10.782;2023-01-09T00:38:48;46.28;;;19.98;;
56321;SDS011;42227;6.376;-10.782;2023-01-09T00:41:18;30.45;;;18.38;;
56321;SDS011;42227;6.376;-10.782;2023-01-09T00:43:53;23.48;;;15.30;;
56321;SDS011;42227;6.376;-10.782;2023-01-09T00:46:26;33.38;;;14.93;;
56321;SDS011;42227;6.376;-10.782;2023-01-09T00:48:58;37.92;;;16.83;;
56321;SDS011;42227;6.376;-10.782;2023-01-09T00:51:28;50.65;;;18.13;;
56321;SDS011;42227;6.376;-10.782;2023-01-09T00:53:57;28.80;;;16.08;;
56321;SDS011;42227;6.376;-10.782;2023-01-09T00:56:26;31.98;;;17.38;;
56321;SDS011;42227;6.376;-10.782;2023-01-09T00:58:54;43.00;;;16.38;;
56321;SDS011;42227;6.376;-10.782;2023-01-09T01:01:22;29.55;;;16.67;;
56321;SDS011;42227;6.376;-10.782;2023-01-09T01:03:51;47.60;;;16.35;;
56321;SDS011;42227;6.376;-10.782;2023-01-09T01:06:19;28.45;;;15.40;;
56321;SDS011;42227;6.376;-10.782;2023-01-09T01:08:48;25.10;;;17.92;;
56321;SDS011;42227;6.376;-10.782;2023-01-09T01:11:16;33.70;;;16.13;;
56321;SDS011;42227;6.376;-10.782;2023-01-09T01:13:44;28.23;;;16.02;;
56321;SDS011;42227;6.376;-10.782;2023-01-09T01:16:13;32.25;;;17.13;;
56321;SDS011;42227;6.376;-10.782;2023-01-09T01:18:41;25.50;;;17.33;;
56321;SDS011;42227;6.376;-10.782;2023-01-09T01:21:11;36.10;;;19.83;;
56321;SDS011;42227;6.376;-10.782;2023-01-09T01:23:41;41.67;;;19.25;;
56321;SDS011;42227;6.376;-10.782;2023-01-09T01:26:10;22.88;;;16.77;;
56321;SDS011;42227;6.376;-10.782;2023-01-09T01:28:41;38.77;;;16.77;;
56321;SDS011;42227;6.376;-10.782;2023-01-09T01:31:14;28.02;;;17.02;;
56321;SDS011;42227;6.376;-10.782;2023-01-09T01:33:44;40.83;;;18.98;;
56321;SDS011;42227;6.376;-10.782;2023-01-09T01:36:13;31.83;;;17.13;;
56321;SDS011;42227;6.376;-10.782;2023-01-09T01:38:41;50.05;;;21.35;;
56321;SDS011;42227;6.376;-10.782;2023-01-09T01:41:10;37.50;;;22.05;;
56321;SDS011;42227;6.376;-10.782;2023-01-09T01:46:58;44.05;;;17.90;;
56321;SDS011;42227;6.376;-10.782;2023-01-09T01:49:26;27.98;;;17.42;;
56321;SDS011;42227;6.376;-10.782;2023-01-09T01:51:54;52.17;;;18.55;;
56321;SDS011;42227;6.376;-10.782;2023-01-09T01:54:23;40.28;;;18.25;;
56321;SDS011;42227;6.376;-10.782;2023-01-09T01:56:56;34.78;;;17.17;;
56321;SDS011;42227;6.376;-10.782;2023-01-09T01:59:37;34.05;;;16.75;;
56321;SDS011;42227;6.376;-10.782;2023-01-09T02:02:10;43.97;;;19.70;;
56321;SDS011;42227;6.376;-10.782;2023-01-09T02:04:39;46.33;;;27.55;;
56321;SDS011;42227;6.376;-10.782;2023-01-09T02:07:07;61.53;;;31.83;;
56321;SDS011;42227;6.376;-10.782;2023-01-09T02:09:37;61.15;;;33.67;;
56321;SDS011;42227;6.376;-10.782;2023-01-09T02:12:18;61.17;;;32.50;;
56321;SDS011;42227;6.376;-10.782;2023-01-09T02:14:49;61.53;;;36.72;;
56321;SDS011;42227;6.376;-10.782;2023-01-09T02:20:26;55.25;;;32.90;;
56321;SDS011;42227;6.376;-10.782;2023-01-09T02:35:11;58.40;;;33.28;;
56321;SDS011;42227;6.376;-10.782;2023-01-09T02:41:01;43.63;;;26.13;;
56321;SDS011;42227;6.376;-10.782;2023-01-09T02:43:37;46.83;;;23.08;;
56321;SDS011;42227;6.376;-10.782;2023-01-09T02:46:13;35.05;;;24.58;;
56321;SDS011;42227;6.376;-10.782;2023-01-09T02:48:50;34.67;;;22.77;;
56321;SDS011;42227;6.376;-10.782;2023-01-09T02:51:26;41.58;;;25.08;;
56321;SDS011;42227;6.376;-10.782;2023-01-09T02:54:03;36.95;;;24.98;;
56321;SDS011;42227;6.376;-10.782;2023-01-09T02:59:34;49.08;;;26.45;;
56321;SDS011;42227;6.376;-10.782;2023-01-09T03:02:43;33.90;;;24.20;;
56321;SDS011;42227;6.376;-10.782;2023-01-09T03:08:21;45.38;;;27.83;;
56321;SDS011;42227;6.376;-10.782;2023-01-09T03:10:56;57.90;;;29.83;;
56321;SDS011;42227;6.376;-10.782;2023-01-09T03:13:29;39.95;;;26.60;;
56321;SDS011;42227;6.376;-10.782;2023-01-09T03:16:04;58.92;;;28.95;;
56321;SDS011;42227;6.376;-10.782;2023-01-09T03:21:04;42.38;;;24.95;;
56321;SDS011;42227;6.376;-10.782;2023-01-09T03:26:21;44.83;;;27.75;;
56321;SDS011;42227;6.376;-10.782;2023-01-09T03:28:50;34.38;;;24.70;;
56321;SDS011;42227;6.376;-10.782;2023-01-09T03:31:19;38.85;;;25.75;;
56321;SDS011;42227;6.376;-10.782;2023-01-09T03:33:48;43.67;;;28.40;;
56321;SDS011;42227;6.376;-10.782;2023-01-09T03:36:17;59.15;;;31.52;;
56321;SDS011;42227;6.376;-10.782;2023-01-09T03:38:47;57.30;;;29.77;;
56321;SDS011;42227;6.376;-10.782;2023-01-09T03:41:15;36.90;;;26.23;;
56321;SDS011;42227;6.376;-10.782;2023-01-09T03:43:44;51.05;;;28.30;;
56321;SDS011;42227;6.376;-10.782;2023-01-09T03:46:16;36.67;;;25.75;;
56321;SDS011;42227;6.376;-10.782;2023-01-09T03:48:44;51.07;;;23.83;;
56321;SDS011;42227;6.376;-10.782;2023-01-09T03:51:12;45.20;;;24.75;;
56321;SDS011;42227;6.376;-10.782;2023-01-09T03:53:40;39.05;;;24.60;;
56321;SDS011;42227;6.376;-10.782;2023-01-09T03:56:08;31.63;;;22.80;;
56321;SDS011;42227;6.376;-10.782;2023-01-09T03:58:37;45.50;;;21.88;;
56321;SDS011;42227;6.376;-10.782;2023-01-09T04:01:05;31.80;;;19.23;;
56321;SDS011;42227;6.376;-10.782;2023-01-09T04:03:34;41.65;;;19.35;;
56321;SDS011;42227;6.376;-10.782;2023-01-09T04:06:02;33.03;;;20.02;;
56321;SDS011;42227;6.376;-10.782;2023-01-09T04:08:31;30.10;;;19.35;;
56321;SDS011;42227;6.376;-10.782;2023-01-09T04:11:00;38.38;;;19.92;;
56321;SDS011;42227;6.376;-10.782;2023-01-09T04:13:28;29.42;;;19.80;;
56321;SDS011;42227;6.376;-10.782;2023-01-09T04:15:56;32.42;;;21.70;;
56321;SDS011;42227;6.376;-10.782;2023-01-09T04:18:25;36.00;;;24.48;;
56321;SDS011;42227;6.376;-10.782;2023-01-09T04:20:53;34.08;;;24.90;;
56321;SDS011;42227;6.376;-10.782;2023-01-09T04:23:21;35.15;;;23.50;;
56321;SDS011;42227;6.376;-10.782;2023-01-09T04:25:49;54.55;;;29.50;;
56321;SDS011;42227;6.376;-10.782;2023-01-09T04:28:17;36.83;;;23.02;;
56321;SDS011;42227;6.376;-10.782;2023-01-09T04:30:46;38.22;;;21.30;;
56321;SDS011;42227;6.376;-10.782;2023-01-09T04:33:14;35.63;;;21.63;;
56321;SDS011;42227;6.376;-10.782;2023-01-09T04:35:42;37.95;;;24.67;;
56321;SDS011;42227;6.376;-10.782;2023-01-09T04:38:10;38.28;;;21.88;;
56321;SDS011;42227;6.376;-10.782;2023-01-09T04:40:39;37.45;;;21.90;;
56321;SDS011;42227;6.376;-10.782;2023-01-09T04:43:07;30.40;;;19.55;;
56321;SDS011;42227;6.376;-10.782;2023-01-09T04:45:35;30.15;;;21.17;;
56321;SDS011;42227;6.376;-10.782;2023-01-09T04:48:03;38.50;;;22.67;;
56321;SDS011;42227;6.376;-10.782;2023-01-09T04:50:32;32.95;;;22.90;;
56321;SDS011;42227;6.376;-10.782;2023-01-09T04:53:00;44.38;;;25.08;;
56321;SDS011;42227;6.376;-10.782;2023-01-09T04:55:29;38.42;;;25.58;;
56321;SDS011;42227;6.376;-10.782;2023-01-09T04:57:57;49.70;;;26.77;;
56321;SDS011;42227;6.376;-10.782;2023-01-09T05:00:25;37.85;;;23.83;;
56321;SDS011;42227;6.376;-10.782;2023-01-09T05:02:54;48.33;;;27.02;;
56321;SDS011;42227;6.376;-10.782;2023-01-09T05:05:22;44.78;;;26.88;;
56321;SDS011;42227;6.376;-10.782;2023-01-09T05:07:50;39.67;;;23.77;;
56321;SDS011;42227;6.376;-10.782;2023-01-09T05:10:19;52.63;;;29.45;;
56321;SDS011;42227;6.376;-10.782;2023-01-09T05:12:47;42.10;;;26.90;;
56321;SDS011;42227;6.376;-10.782;2023-01-09T05:15:15;36.28;;;24.23;;
56321;SDS011;42227;6.376;-10.782;2023-01-09T05:17:43;35.10;;;21.83;;
56321;SDS011;42227;6.376;-10.782;2023-01-09T05:20:12;35.17;;;24.05;;
56321;SDS011;42227;6.376;-10.782;2023-01-09T05:22:40;33.38;;;22.27;;
56321;SDS011;42227;6.376;-10.782;2023-01-09T05:25:08;36.55;;;21.27;;
56321;SDS011;42227;6.376;-10.782;2023-01-09T05:27:36;37.75;;;22.00;;
56321;SDS011;42227;6.376;-10.782;2023-01-09T05:30:05;33.88;;;22.15;;
56321;SDS011;42227;6.376;-10.782;2023-01-09T05:32:33;33.58;;;25.02;;
56321;SDS011;42227;6.376;-10.782;2023-01-09T05:35:02;34.50;;;21.13;;
56321;SDS011;42227;6.376;-10.782;2023-01-09T05:37:30;37.67;;;21.10;;
56321;SDS011;42227;6.376;-10.782;2023-01-09T05:39:58;41.50;;;21.63;;
56321;SDS011;42227;6.376;-10.782;2023-01-09T05:42:27;44.28;;;20.65;;
56321;SDS011;42227;6.376;-10.782;2023-01-09T05:44:55;32.28;;;20.70;;
56321;SDS011;42227;6.376;-10.782;2023-01-09T05:47:23;27.98;;;20.58;;
56321;SDS011;42227;6.376;-10.782;2023-01-09T05:49:52;29.40;;;20.58;;
56321;SDS011;42227;6.376;-10.782;2023-01-09T05:52:20;42.40;;;20.00;;
56321;SDS011;42227;6.376;-10.782;2023-01-09T05:54:49;31.77;;;21.73;;
56321;SDS011;42227;6.376;-10.782;2023-01-09T05:57:17;33.13;;;21.80;;
56321;SDS011;42227;6.376;-10.782;2023-01-09T05:59:45;47.00;;;24.20;;
56321;SDS011;42227;6.376;-10.782;2023-01-09T06:02:14;29.15;;;20.58;;
56321;SDS011;42227;6.376;-10.782;2023-01-09T06:04:42;35.63;;;22.30;;
56321;SDS011;42227;6.376;-10.782;2023-01-09T06:07:10;32.58;;;22.13;;
56321;SDS011;42227;6.376;-10.782;2023-01-09T06:09:45;37.30;;;22.95;;
56321;SDS011;42227;6.376;-10.782;2023-01-09T06:12:14;38.03;;;21.13;;
56321;SDS011;42227;6.376;-10.782;2023-01-09T06:14:42;30.45;;;19.55;;
56321;SDS011;42227;6.376;-10.782;2023-01-09T06:17:10;39.20;;;23.15;;
56321;SDS011;42227;6.376;-10.782;2023-01-09T06:19:38;39.42;;;22.17;;
56321;SDS011;42227;6.376;-10.782;2023-01-09T06:22:06;52.35;;;22.33;;
56321;SDS011;42227;6.376;-10.782;2023-01-09T06:24:35;49.17;;;23.45;;
56321;SDS011;42227;6.376;-10.782;2023-01-09T06:27:03;34.17;;;20.08;;
56321;SDS011;42227;6.376;-10.782;2023-01-09T06:29:31;48.28;;;24.80;;
56321;SDS011;42227;6.376;-10.782;2023-01-09T06:31:59;35.00;;;23.60;;
56321;SDS011;42227;6.376;-10.782;2023-01-09T06:34:27;56.40;;;25.15;;
56321;SDS011;42227;6.376;-10.782;2023-01-09T06:36:56;38.67;;;21.27;;
56321;SDS011;42227;6.376;-10.782;2023-01-09T06:39:24;42.13;;;22.73;;
56321;SDS011;42227;6.376;-10.782;2023-01-09T06:41:52;33.85;;;20.70;;
56321;SDS011;42227;6.376;-10.782;2023-01-09T06:44:20;47.25;;;23.98;;
56321;SDS011;42227;6.376;-10.782;2023-01-09T06:46:48;30.38;;;21.73;;
56321;SDS011;42227;6.376;-10.782;2023-01-09T06:49:17;37.35;;;22.83;;
56321;SDS011;42227;6.376;-10.782;2023-01-09T06:51:45;41.15;;;22.55;;
56321;SDS011;42227;6.376;-10.782;2023-01-09T06:54:13;36.40;;;22.73;;
56321;SDS011;42227;6.376;-10.782;2023-01-09T06:56:42;28.92;;;21.15;;
56321;SDS011;42227;6.376;-10.782;2023-01-09T06:59:11;53.08;;;23.42;;
56321;SDS011;42227;6.376;-10.782;2023-01-09T07:01:39;51.63;;;24.17;;
56321;SDS011;42227;6.376;-10.782;2023-01-09T07:04:08;46.30;;;26.52;;
56321;SDS011;42227;6.376;-10.782;2023-01-09T07:06:36;47.10;;;27.23;;
56321;SDS011;42227;6.376;-10.782;2023-01-09T07:09:05;39.53;;;28.17;;
56321;SDS011;42227;6.376;-10.782;2023-01-09T07:11:33;45.33;;;27.15;;
56321;SDS011;42227;6.376;-10.782;2023-01-09T07:14:01;47.53;;;28.80;;
56321;SDS011;42227;6.376;-10.782;2023-01-09T07:16:30;60.65;;;29.83;;
56321;SDS011;42227;6.376;-10.782;2023-01-09T07:18:58;43.83;;;26.45;;
56321;SDS011;42227;6.376;-10.782;2023-01-09T07:21:26;56.05;;;26.90;;
56321;SDS011;42227;6.376;-10.782;2023-01-09T07:23:58;49.03;;;29.73;;
56321;SDS011;42227;6.376;-10.782;2023-01-09T07:26:26;47.92;;;28.88;;
56321;SDS011;42227;6.376;-10.782;2023-01-09T07:28:54;56.75;;;29.30;;
56321;SDS011;42227;6.376;-10.782;2023-01-09T07:31:22;47.13;;;28.45;;
56321;SDS011;42227;6.376;-10.782;2023-01-09T07:33:51;50.50;;;30.00;;
56321;SDS011;42227;6.376;-10.782;2023-01-09T07:36:19;48.42;;;28.65;;
56321;SDS011;42227;6.376;-10.782;2023-01-09T07:38:47;60.78;;;31.50;;
56321;SDS011;42227;6.376;-10.782;2023-01-09T07:41:16;53.50;;;30.25;;
56321;SDS011;42227;6.376;-10.782;2023-01-09T07:43:45;56.28;;;29.42;;
56321;SDS011;42227;6.376;-10.782;2023-01-09T07:46:13;48.97;;;30.98;;
56321;SDS011;42227;6.376;-10.782;2023-01-09T07:48:42;59.08;;;29.63;;
56321;SDS011;42227;6.376;-10.782;2023-01-09T07:51:10;73.45;;;30.80;;
56321;SDS011;42227;6.376;-10.782;2023-01-09T07:53:38;59.97;;;30.25;;
56321;SDS011;42227;6.376;-10.782;2023-01-09T07:56:07;72.18;;;42.17;;
56321;SDS011;42227;6.376;-10.782;2023-01-09T07:58:35;56.38;;;41.15;;
56321;SDS011;42227;6.376;-10.782;2023-01-09T08:01:03;45.83;;;31.60;;
56321;SDS011;42227;6.376;-10.782;2023-01-09T08:03:32;46.03;;;28.05;;
56321;SDS011;42227;6.376;-10.782;2023-01-09T08:06:00;35.55;;;24.33;;
56321;SDS011;42227;6.376;-10.782;2023-01-09T08:08:29;48.22;;;25.95;;
56321;SDS011;42227;6.376;-10.782;2023-01-09T08:10:57;49.65;;;27.27;;
56321;SDS011;42227;6.376;-10.782;2023-01-09T08:13:25;48.00;;;29.45;;
56321;SDS011;42227;6.376;-10.782;2023-01-09T08:15:53;55.15;;;25.95;;
56321;SDS011;42227;6.376;-10.782;2023-01-09T08:18:22;47.50;;;26.25;;
56321;SDS011;42227;6.376;-10.782;2023-01-09T08:20:50;38.05;;;24.08;;
56321;SDS011;42227;6.376;-10.782;2023-01-09T08:23:18;40.25;;;22.00;;
56321;SDS011;42227;6.376;-10.782;2023-01-09T08:25:47;44.20;;;22.58;;
56321;SDS011;42227;6.376;-10.782;2023-01-09T08:28:15;39.92;;;22.27;;
56321;SDS011;42227;6.376;-10.782;2023-01-09T08:30:43;43.03;;;25.85;;
56321;SDS011;42227;6.376;-10.782;2023-01-09T08:33:12;41.72;;;21.45;;
56321;SDS011;42227;6.376;-10.782;2023-01-09T08:35:42;38.35;;;21.33;;
56321;SDS011;42227;6.376;-10.782;2023-01-09T08:38:10;54.50;;;26.20;;
56321;SDS011;42227;6.376;-10.782;2023-01-09T08:40:39;38.05;;;21.25;;
56321;SDS011;42227;6.376;-10.782;2023-01-09T08:43:07;51.70;;;21.15;;
56321;SDS011;42227;6.376;-10.782;2023-01-09T08:45:36;46.38;;;21.83;;
56321;SDS011;42227;6.376;-10.782;2023-01-09T08:48:04;37.13;;;20.10;;
56321;SDS011;42227;6.376;-10.782;2023-01-09T08:50:33;43.35;;;18.92;;
56321;SDS011;42227;6.376;-10.782;2023-01-09T08:53:01;34.30;;;16.13;;
56321;SDS011;42227;6.376;-10.782;2023-01-09T08:55:30;62.33;;;22.58;;
56321;SDS011;42227;6.376;-10.782;2023-01-09T08:57:58;31.05;;;18.00;;
56321;SDS011;42227;6.376;-10.782;2023-01-09T09:00:26;39.03;;;20.60;;
56321;SDS011;42227;6.376;-10.782;2023-01-09T09:02:56;35.42;;;17.75;;
56321;SDS011;42227;6.376;-10.782;2023-01-09T09:05:27;28.33;;;17.65;;
56321;SDS011;42227;6.376;-10.782;2023-01-09T09:07:56;38.22;;;20.23;;
56321;SDS011;42227;6.376;-10.782;2023-01-09T09:10:26;38.33;;;21.83;;
56321;SDS011;42227;6.376;-10.782;2023-01-09T09:12:56;38.38;;;18.58;;
56321;SDS011;42227;6.376;-10.782;2023-01-09T09:15:25;32.47;;;17.25;;
56321;SDS011;42227;6.376;-10.782;2023-01-09T09:17:55;27.63;;;18.08;;
56321;SDS011;42227;6.376;-10.782;2023-01-09T09:20:26;34.03;;;17.25;;
56321;SDS011;42227;6.376;-10.782;2023-01-09T09:22:57;45.95;;;17.90;;
56321;SDS011;42227;6.376;-10.782;2023-01-09T09:25:25;37.00;;;18.83;;
56321;SDS011;42227;6.376;-10.782;2023-01-09T09:27:54;39.13;;;16.88;;
56321;SDS011;42227;6.376;-10.782;2023-01-09T09:30:23;32.67;;;15.05;;
56321;SDS011;42227;6.376;-10.782;2023-01-09T09:32:51;28.63;;;15.65;;
56321;SDS011;42227;6.376;-10.782;2023-01-09T09:35:19;36.65;;;17.63;;
56321;SDS011;42227;6.376;-10.782;2023-01-09T09:37:58;30.73;;;15.25;;
56321;SDS011;42227;6.376;-10.782;2023-01-09T09:46:36;28.58;;;17.33;;
56321;SDS011;42227;6.376;-10.782;2023-01-09T09:49:20;23.95;;;18.33;;
56321;SDS011;42227;6.376;-10.782;2023-01-09T09:52:03;51.40;;;22.75;;
56321;SDS011;42227;6.376;-10.782;2023-01-09T09:54:47;37.63;;;22.90;;
56321;SDS011;42227;6.376;-10.782;2023-01-09T09:57:20;41.05;;;19.08;;
56321;SDS011;42227;6.376;-10.782;2023-01-09T09:59:55;47.42;;;23.83;;
56321;SDS011;42227;6.376;-10.782;2023-01-09T10:02:27;31.85;;;17.25;;
56321;SDS011;42227;6.376;-10.782;2023-01-09T10:05:02;35.90;;;15.25;;
56321;SDS011;42227;6.376;-10.782;2023-01-09T10:07:41;43.25;;;17.00;;
56321;SDS011;42227;6.376;-10.782;2023-01-09T10:10:34;22.40;;;17.40;;
56321;SDS011;42227;6.376;-10.782;2023-01-09T10:13:07;35.65;;;14.95;;
56321;SDS011;42227;6.376;-10.782;2023-01-09T10:15:43;35.92;;;16.60;;
56321;SDS011;42227;6.376;-10.782;2023-01-09T10:21:54;31.98;;;14.32;;
56321;SDS011;42227;6.376;-10.782;2023-01-09T10:24:30;28.92;;;14.60;;
56321;SDS011;42227;6.376;-10.782;2023-01-09T10:27:17;36.22;;;18.23;;
56321;SDS011;42227;6.376;-10.782;2023-01-09T10:36:24;29.30;;;15.07;;
56321;SDS011;42227;6.376;-10.782;2023-01-09T10:38:45;40.55;;;18.45;;
56321;SDS011;42227;6.376;-10.782;2023-01-09T10:41:21;33.15;;;17.58;;
56321;SDS011;42227;6.376;-10.782;2023-01-09T10:44:12;37.22;;;16.75;;
56321;SDS011;42227;6.376;-10.782;2023-01-09T10:46:52;28.38;;;16.85;;
56321;SDS011;42227;6.376;-10.782;2023-01-09T10:49:22;24.73;;;16.20;;
56321;SDS011;42227;6.376;-10.782;2023-01-09T10:52:12;35.70;;;15.60;;
56321;SDS011;42227;6.376;-10.782;2023-01-09T10:54:54;16.10;;;11.05;;
56321;SDS011;42227;6.376;-10.782;2023-01-09T11:00:04;29.90;;;16.95;;
56321;SDS011;42227;6.376;-10.782;2023-01-09T11:02:34;22.17;;;14.05;;
56321;SDS011;42227;6.376;-10.782;2023-01-09T11:05:02;26.30;;;13.60;;
56321;SDS011;42227;6.376;-10.782;2023-01-09T11:07:35;40.03;;;15.13;;
56321;SDS011;42227;6.376;-10.782;2023-01-09T11:10:06;46.97;;;31.40;;
56321;SDS011;42227;6.376;-10.782;2023-01-09T11:12:37;36.63;;;18.70;;
56321;SDS011;42227;6.376;-10.782;2023-01-09T11:17:46;28.02;;;13.88;;
56321;SDS011;42227;6.376;-10.782;2023-01-09T11:20:24;26.52;;;18.42;;
56321;SDS011;42227;6.376;-10.782;2023-01-09T11:22:55;36.80;;;16.75;;
56321;SDS011;42227;6.376;-10.782;2023-01-09T11:25:26;33.50;;;14.93;;
56321;SDS011;42227;6.376;-10.782;2023-01-09T11:30:30;26.65;;;15.10;;
56321;SDS011;42227;6.376;-10.782;2023-01-09T11:33:18;24.52;;;13.70;;
56321;SDS011;42227;6.376;-10.782;2023-01-09T11:38:58;54.58;;;15.05;;
56321;SDS011;42227;6.376;-10.782;2023-01-09T11:41:28;27.42;;;13.65;;
56321;SDS011;42227;6.376;-10.782;2023-01-09T11:43:59;34.85;;;13.18;;
56321;SDS011;42227;6.376;-10.782;2023-01-09T11:49:07;53.85;;;19.00;;
56321;SDS011;42227;6.376;-10.782;2023-01-09T11:54:39;21.85;;;12.98;;
56321;SDS011;42227;6.376;-10.782;2023-01-09T11:57:28;26.48;;;13.70;;
56321;SDS011;42227;6.376;-10.782;2023-01-09T11:59:58;37.47;;;15.35;;
56321;SDS011;42227;6.376;-10.782;2023-01-09T12:02:53;26.83;;;15.18;;
56321;SDS011;42227;6.376;-10.782;2023-01-09T12:08:08;45.30;;;26.15;;
56321;SDS011;42227;6.376;-10.782;2023-01-09T12:14:17;31.13;;;14.18;;
56321;SDS011;42227;6.376;-10.782;2023-01-09T12:16:30;28.50;;;15.40;;
56321;SDS011;42227;6.376;-10.782;2023-01-09T12:27:12;42.08;;;13.85;;
56321;SDS011;42227;6.376;-10.782;2023-01-09T12:32:51;28.15;;;14.55;;
56321;SDS011;42227;6.376;-10.782;2023-01-09T12:35:31;30.95;;;13.75;;
56321;SDS011;42227;6.376;-10.782;2023-01-09T12:47:11;36.35;;;12.18;;
56321;SDS011;42227;6.376;-10.782;2023-01-09T12:56:01;25.00;;;15.77;;
56321;SDS011;42227;6.376;-10.782;2023-01-09T13:01:12;22.77;;;13.73;;
56321;SDS011;42227;6.376;-10.782;2023-01-09T13:03:54;22.73;;;13.15;;
56321;SDS011;42227;6.376;-10.782;2023-01-09T13:06:28;28.77;;;14.68;;
56321;SDS011;42227;6.376;-10.782;2023-01-09T13:12:13;40.58;;;16.30;;
56321;SDS011;42227;6.376;-10.782;2023-01-09T13:17:22;26.05;;;13.80;;
56321;SDS011;42227;6.376;-10.782;2023-01-09T13:20:08;37.15;;;15.73;;
56321;SDS011;42227;6.376;-10.782;2023-01-09T13:22:43;39.15;;;15.88;;
56321;SDS011;42227;6.376;-10.782;2023-01-09T13:27:40;28.77;;;14.15;;
56321;SDS011;42227;6.376;-10.782;2023-01-09T13:30:18;25.02;;;14.35;;
56321;SDS011;42227;6.376;-10.782;2023-01-09T13:33:03;20.70;;;13.45;;
56321;SDS011;42227;6.376;-10.782;2023-01-09T13:35:50;31.98;;;14.95;;
56321;SDS011;42227;6.376;-10.782;2023-01-09T13:38:24;30.73;;;14.40;;
56321;SDS011;42227;6.376;-10.782;2023-01-09T13:41:12;27.85;;;14.85;;
56321;SDS011;42227;6.376;-10.782;2023-01-09T13:43:55;31.67;;;15.10;;
56321;SDS011;42227;6.376;-10.782;2023-01-09T13:46:41;20.65;;;13.75;;
56321;SDS011;42227;6.376;-10.782;2023-01-09T13:49:30;25.13;;;14.82;;
56321;SDS011;42227;6.376;-10.782;2023-01-09T13:57:26;26.63;;;15.68;;
56321;SDS011;42227;6.376;-10.782;2023-01-09T14:05:12;25.17;;;14.15;;
56321;SDS011;42227;6.376;-10.782;2023-01-09T14:07:43;19.52;;;14.20;;
56321;SDS011;42227;6.376;-10.782;2023-01-09T14:10:21;30.20;;;13.00;;
56321;SDS011;42227;6.376;-10.782;2023-01-09T14:12:55;30.42;;;12.80;;
56321;SDS011;42227;6.376;-10.782;2023-01-09T14:17:59;19.65;;;14.02;;
56321;SDS011;42227;6.376;-10.782;2023-01-09T14:20:37;29.52;;;14.68;;
56321;SDS011;42227;6.376;-10.782;2023-01-09T14:23:15;29.33;;;12.98;;
56321;SDS011;42227;6.376;-10.782;2023-01-09T14:26:17;28.65;;;15.77;;
56321;SDS011;42227;6.376;-10.782;2023-01-09T14:28:50;37.58;;;15.85;;
56321;SDS011;42227;6.376;-10.782;2023-01-09T14:31:39;30.50;;;13.00;;
56321;SDS011;42227;6.376;-10.782;2023-01-09T14:36:58;43.33;;;16.33;;
56321;SDS011;42227;6.376;-10.782;2023-01-09T14:39:29;27.05;;;14.18;;
56321;SDS011;42227;6.376;-10.782;2023-01-09T14:41:59;18.55;;;11.65;;
56321;SDS011;42227;6.376;-10.782;2023-01-09T14:47:04;35.05;;;13.32;;
56321;SDS011;42227;6.376;-10.782;2023-01-09T14:55:32;31.20;;;14.32;;
56321;SDS011;42227;6.376;-10.782;2023-01-09T15:00:52;49.70;;;16.75;;
56321;SDS011;42227;6.376;-10.782;2023-01-09T15:03:37;33.80;;;14.43;;
56321;SDS011;42227;6.376;-10.782;2023-01-09T15:06:12;34.10;;;16.33;;
56321;SDS011;42227;6.376;-10.782;2023-01-09T15:08:45;30.77;;;16.50;;
56321;SDS011;42227;6.376;-10.782;2023-01-09T15:11:21;26.95;;;15.27;;
56321;SDS011;42227;6.376;-10.782;2023-01-09T15:13:49;27.40;;;15.27;;
56321;SDS011;42227;6.376;-10.782;2023-01-09T15:16:23;32.28;;;15.13;;
56321;SDS011;42227;6.376;-10.782;2023-01-09T15:19:03;26.40;;;14.32;;
56321;SDS011;42227;6.376;-10.782;2023-01-09T15:21:34;35.67;;;17.40;;
56321;SDS011;42227;6.376;-10.782;2023-01-09T15:24:21;34.63;;;14.23;;
56321;SDS011;42227;6.376;-10.782;2023-01-09T15:26:52;21.60;;;15.30;;
56321;SDS011;42227;6.376;-10.782;2023-01-09T15:29:22;25.20;;;13.30;;
56321;SDS011;42227;6.376;-10.782;2023-01-09T15:32:02;20.85;;;13.30;;
56321;SDS011;42227;6.376;-10.782;2023-01-09T15:34:36;30.20;;;13.70;;
56321;SDS011;42227;6.376;-10.782;2023-01-09T15:37:12;26.45;;;16.13;;
56321;SDS011;42227;6.376;-10.782;2023-01-09T15:39:55;23.70;;;13.20;;
56321;SDS011;42227;6.376;-10.782;2023-01-09T15:42:26;39.20;;;15.93;;
56321;SDS011;42227;6.376;-10.782;2023-01-09T15:44:57;24.35;;;15.25;;
56321;SDS011;42227;6.376;-10.782;2023-01-09T15:47:25;25.92;;;14.23;;
56321;SDS011;42227;6.376;-10.782;2023-01-09T15:49:54;35.63;;;17.45;;
56321;SDS011;42227;6.376;-10.782;2023-01-09T15:52:23;28.02;;;14.48;;
56321;SDS011;42227;6.376;-10.782;2023-01-09T15:54:52;40.13;;;17.20;;
56321;SDS011;42227;6.376;-10.782;2023-01-09T15:59:52;40.63;;;16.77;;
56321;SDS011;42227;6.376;-10.782;2023-01-09T16:02:22;33.17;;;16.50;;
56321;SDS011;42227;6.376;-10.782;2023-01-09T16:04:52;29.33;;;18.77;;
56321;SDS011;42227;6.376;-10.782;2023-01-09T16:07:22;31.88;;;17.45;;
56321;SDS011;42227;6.376;-10.782;2023-01-09T16:09:50;37.00;;;18.33;;
56321;SDS011;42227;6.376;-10.782;2023-01-09T16:12:20;47.88;;;18.45;;
56321;SDS011;42227;6.376;-10.782;2023-01-09T16:14:58;39.00;;;18.10;;
56321;SDS011;42227;6.376;-10.782;2023-01-09T16:17:27;46.92;;;18.33;;
56321;SDS011;42227;6.376;-10.782;2023-01-09T16:19:56;42.25;;;17.30;;
56321;SDS011;42227;6.376;-10.782;2023-01-09T16:22:51;36.20;;;16.98;;
56321;SDS011;42227;6.376;-10.782;2023-01-09T16:28:34;22.33;;;16.65;;
56321;SDS011;42227;6.376;-10.782;2023-01-09T16:33:28;39.17;;;20.50;;
56321;SDS011;42227;6.376;-10.782;2023-01-09T16:35:57;32.95;;;20.98;;
56321;SDS011;42227;6.376;-10.782;2023-01-09T16:38:26;56.85;;;24.77;;
56321;SDS011;42227;6.376;-10.782;2023-01-09T16:43:27;36.78;;;19.38;;
56321;SDS011;42227;6.376;-10.782;2023-01-09T16:45:55;32.15;;;18.38;;
56321;SDS011;42227;6.376;-10.782;2023-01-09T16:48:23;28.83;;;18.08;;
56321;SDS011;42227;6.376;-10.782;2023-01-09T16:50:51;53.50;;;24.48;;
56321;SDS011;42227;6.376;-10.782;2023-01-09T16:53:21;38.22;;;18.95;;
56321;SDS011;42227;6.376;-10.782;2023-01-09T16:55:50;35.67;;;16.88;;
56321;SDS011;42227;6.376;-10.782;2023-01-09T16:58:29;44.75;;;18.48;;
56321;SDS011;42227;6.376;-10.782;2023-01-09T17:01:00;38.53;;;20.13;;